Time;durP1;ratioP1;P1;durP2;ratioP2;P2;SDS_P1;SDS_P2;PMS_P1;PMS_P2;Temp;Humidity;BMP_temperature;BMP_pressure;BME280_temperature;BME280_humidity;BME280_pressure;Samples;Min_cycle;Max_cycle;Signal;HPM_P1;HPM_P2
2021/10/04 00:02:17;;;;;;;64.90;37.38;;;;;;;6.94;78.79;101554.88;5001457;28;20065;-62
2021/10/04 00:05:03;;;;;;;67.13;38.10;;;;;;;7.08;78.86;101587.88;5003144;28;20033;-62
2021/10/04 00:07:49;;;;;;;68.00;37.13;;;;;;;7.05;78.76;101592.97;5003856;28;20034;-62
2021/10/04 00:10:35;;;;;;;67.57;37.50;;;;;;;7.08;78.93;101590.44;5021116;28;20331;-62
2021/10/04 00:13:21;;;;;;;62.83;38.58;;;;;;;7.13;78.81;101594.84;5004077;28;20034;-62
2021/10/04 00:16:07;;;;;;;55.80;37.05;;;;;;;7.16;79.30;101600.94;4987233;28;20054;-62
2021/10/04 00:18:53;;;;;;;62.42;37.40;;;;;;;7.03;79.38;101597.19;5000203;28;20042;-61
2021/10/04 00:21:39;;;;;;;59.03;33.42;;;;;;;7.07;79.63;101606.75;5014133;28;20097;-62
2021/10/04 00:24:24;;;;;;;61.25;36.72;;;;;;;7.11;79.41;101611.97;5011319;28;20037;-62
2021/10/04 00:27:10;;;;;;;65.50;37.60;;;;;;;7.08;79.65;101613.63;5005619;28;20332;-62
2021/10/04 00:29:57;;;;;;;58.53;36.08;;;;;;;7.03;80.04;101612.66;5005797;28;20029;-62
2021/10/04 00:32:45;;;;;;;62.67;36.53;;;;;;;6.99;79.01;101628.84;5002855;28;20037;-62
2021/10/04 00:35:31;;;;;;;65.57;37.15;;;;;;;7.00;78.97;101612.56;5004094;28;20089;-61
2021/10/04 00:38:17;;;;;;;61.50;36.72;;;;;;;6.97;79.10;101612.50;5004155;28;20021;-61
2021/10/04 00:41:03;;;;;;;57.88;36.17;;;;;;;7.00;79.31;101612.56;5003327;28;20080;-61
2021/10/04 00:43:49;;;;;;;59.25;35.97;;;;;;;6.93;79.78;101614.94;5002380;28;20026;-61
2021/10/04 00:46:35;;;;;;;58.58;36.15;;;;;;;6.93;79.09;101600.38;5004997;28;20018;-61
2021/10/04 00:49:21;;;;;;;60.95;36.58;;;;;;;6.88;79.47;101615.72;5005078;28;20033;-62
2021/10/04 00:52:07;;;;;;;58.83;34.30;;;;;;;6.96;79.10;101628.78;5004181;28;20343;-60
2021/10/04 00:54:53;;;;;;;61.30;36.30;;;;;;;6.91;78.92;101614.91;5009002;28;20030;-61
2021/10/04 00:57:40;;;;;;;57.70;33.80;;;;;;;6.83;78.92;101613.88;5012087;28;20207;-62
2021/10/04 01:00:28;;;;;;;54.22;32.33;;;;;;;6.78;78.93;101608.56;5004510;28;20357;-62
2021/10/04 01:03:16;;;;;;;55.47;33.47;;;;;;;6.71;79.68;101612.72;5003175;28;20323;-61
2021/10/04 01:06:02;;;;;;;53.30;33.67;;;;;;;6.72;79.82;101609.28;5005701;28;20072;-61
2021/10/04 01:08:48;;;;;;;52.05;33.20;;;;;;;6.77;78.65;101614.59;5014743;28;20071;-61
2021/10/04 01:11:34;;;;;;;57.58;33.30;;;;;;;6.84;78.89;101615.59;5009411;28;20065;-63
2021/10/04 01:14:20;;;;;;;55.13;34.75;;;;;;;6.81;78.74;101612.94;4995948;28;20023;-62
2021/10/04 01:17:06;;;;;;;56.67;32.33;;;;;;;6.82;78.93;101614.69;5001839;28;20033;-62
2021/10/04 01:19:52;;;;;;;52.28;32.35;;;;;;;6.72;79.36;101609.28;5006687;28;20029;-62
2021/10/04 01:22:38;;;;;;;61.90;36.10;;;;;;;6.69;78.77;101606.66;5004540;28;20030;-61
2021/10/04 01:25:25;;;;;;;50.20;32.42;;;;;;;6.70;79.42;101610.97;5003430;28;20022;-61
2021/10/04 01:28:11;;;;;;;54.70;33.53;;;;;;;6.78;79.13;101603.44;5003869;28;20096;-61
2021/10/04 01:30:57;;;;;;;50.15;33.10;;;;;;;6.77;78.78;101612.00;5000584;28;20136;-61
2021/10/04 01:33:43;;;;;;;58.15;32.63;;;;;;;6.68;78.21;101612.66;5002853;28;20030;-61
2021/10/04 01:36:30;;;;;;;54.22;32.85;;;;;;;6.68;78.69;101615.22;5016591;28;20025;-61
2021/10/04 01:39:16;;;;;;;54.58;32.35;;;;;;;6.67;78.64;101616.03;5002679;28;20033;-61
2021/10/04 01:42:01;;;;;;;53.85;32.95;;;;;;;6.61;79.00;101618.44;5003180;28;20335;-61
2021/10/04 01:44:48;;;;;;;53.67;32.53;;;;;;;6.56;79.02;101626.03;5003806;28;20045;-62
2021/10/04 01:47:34;;;;;;;54.25;31.88;;;;;;;6.66;78.46;101622.00;5001875;28;20027;-62
2021/10/04 01:50:20;;;;;;;58.75;33.97;;;;;;;6.65;79.05;101627.13;5002864;28;20026;-61
2021/10/04 01:53:08;;;;;;;54.33;32.60;;;;;;;6.35;78.30;101566.28;4988400;28;20034;-61
2021/10/04 01:55:54;;;;;;;49.63;31.58;;;;;;;6.61;78.57;101626.16;5002769;28;20038;-62
2021/10/04 01:58:40;;;;;;;56.05;34.40;;;;;;;6.62;78.80;101622.75;5003297;28;20192;-61
2021/10/04 02:01:26;;;;;;;53.17;32.28;;;;;;;6.59;78.52;101632.97;5004217;28;20101;-61
2021/10/04 02:04:11;;;;;;;56.88;33.58;;;;;;;6.54;78.85;101629.41;4991654;28;20034;-61
2021/10/04 02:06:57;;;;;;;54.85;32.92;;;;;;;6.53;78.59;101628.53;5003969;28;20255;-61
2021/10/04 02:09:47;;;;;;;55.53;33.58;;;;;;;6.48;79.17;101635.25;5003552;28;20381;-62
2021/10/04 02:12:34;;;;;;;56.40;33.45;;;;;;;6.48;78.73;101637.84;4989134;28;20085;-61
2021/10/04 02:15:20;;;;;;;55.83;34.85;;;;;;;6.46;79.33;101636.06;5003977;28;20022;-62
2021/10/04 02:18:07;;;;;;;49.55;32.15;;;;;;;6.46;79.04;101629.22;5003424;28;20268;-60
2021/10/04 02:20:53;;;;;;;55.92;34.10;;;;;;;6.42;79.36;101632.53;5003389;28;20029;-61
2021/10/04 02:23:39;;;;;;;59.78;34.45;;;;;;;6.39;79.65;101635.88;5001140;28;20034;-62
2021/10/04 02:26:25;;;;;;;55.53;34.00;;;;;;;6.52;79.04;101633.66;5002260;28;20100;-62
2021/10/04 02:29:11;;;;;;;55.28;32.58;;;;;;;6.48;79.26;101636.97;5006923;28;20045;-61
2021/10/04 02:31:57;;;;;;;53.70;34.03;;;;;;;6.43;79.02;101635.97;5007363;28;20164;-61
2021/10/04 02:34:43;;;;;;;55.95;32.47;;;;;;;6.48;79.41;101645.56;5006459;28;20053;-61
2021/10/04 02:37:28;;;;;;;51.63;32.50;;;;;;;6.41;79.68;101637.63;5006392;28;20027;-61
2021/10/04 02:40:15;;;;;;;58.78;34.40;;;;;;;6.39;79.80;101642.75;5003016;28;20026;-61
2021/10/04 02:43:01;;;;;;;53.20;32.28;;;;;;;6.47;79.54;101636.13;5007346;28;20129;-62
2021/10/04 02:45:49;;;;;;;52.42;32.97;;;;;;;6.03;79.90;101580.03;5006599;28;20030;-62
2021/10/04 02:48:36;;;;;;;51.90;34.08;;;;;;;6.43;79.70;101635.97;5007258;28;20061;-61
2021/10/04 02:51:22;;;;;;;50.05;32.38;;;;;;;6.48;79.45;101634.41;5006136;28;20026;-61
2021/10/04 02:54:08;;;;;;;58.40;33.42;;;;;;;6.53;79.55;101643.13;4999395;28;20088;-62
2021/10/04 02:56:53;;;;;;;49.70;30.65;;;;;;;6.57;79.23;101639.81;5021082;28;20041;-61
2021/10/04 02:59:40;;;;;;;61.60;34.17;;;;;;;6.53;79.46;101641.41;5012025;28;20030;-61
2021/10/04 03:02:26;;;;;;;51.10;31.35;;;;;;;6.62;79.76;101643.34;5006259;28;20030;-61
2021/10/04 03:05:12;;;;;;;51.90;31.75;;;;;;;6.54;79.53;101640.59;5005396;28;20037;-61
2021/10/04 03:08:00;;;;;;;54.50;31.98;;;;;;;6.58;79.39;101638.97;5006847;28;20127;-61
2021/10/04 03:10:46;;;;;;;55.03;31.90;;;;;;;6.64;79.34;101635.69;5006745;28;20339;-61
2021/10/04 03:13:32;;;;;;;53.67;31.35;;;;;;;6.65;79.28;101640.88;5006763;28;20454;-61
2021/10/04 03:16:20;;;;;;;55.83;32.33;;;;;;;6.61;79.21;101640.75;5012453;28;20255;-61
2021/10/04 03:19:06;;;;;;;53.55;32.53;;;;;;;6.55;79.35;101637.16;5005562;28;20065;-61
2021/10/04 03:21:51;;;;;;;54.85;30.95;;;;;;;6.64;79.14;101636.56;5006868;28;20370;-62
2021/10/04 03:24:37;;;;;;;51.58;31.88;;;;;;;6.64;79.38;101641.72;5005713;28;20037;-61
2021/10/04 03:27:23;;;;;;;58.70;33.13;;;;;;;6.68;79.38;101640.97;5010329;28;20032;-61
2021/10/04 03:30:10;;;;;;;55.72;31.55;;;;;;;6.69;79.32;101644.41;5011108;28;20030;-61
2021/10/04 03:32:56;;;;;;;55.88;29.75;;;;;;;6.49;78.92;101603.56;5006872;28;20385;-61
2021/10/04 03:35:42;;;;;;;58.15;30.95;;;;;;;6.76;79.21;101648.03;5002482;28;20081;-61
2021/10/04 03:38:27;;;;;;;57.25;30.98;;;;;;;6.72;78.75;101650.50;5005403;28;20112;-61
2021/10/04 03:41:13;;;;;;;60.22;31.48;;;;;;;6.67;78.94;101653.78;5004502;28;20050;-62
2021/10/04 03:43:59;;;;;;;64.53;32.83;;;;;;;6.64;79.21;101657.16;5004964;28;20113;-61
2021/10/04 03:46:45;;;;;;;72.13;32.83;;;;;;;6.62;79.25;101660.53;5005013;28;20224;-62
2021/10/04 03:49:31;;;;;;;77.50;35.17;;;;;;;6.60;79.14;101655.34;5003235;28;20038;-62
2021/10/04 03:52:17;;;;;;;64.68;32.28;;;;;;;6.57;79.26;101656.13;4999997;28;20037;-62
2021/10/04 03:55:05;;;;;;;66.25;32.45;;;;;;;6.57;79.67;101661.25;5006637;28;20057;-61
2021/10/04 03:57:50;;;;;;;81.50;34.47;;;;;;;6.58;79.28;101656.97;5004019;28;20326;-61
2021/10/04 04:00:36;;;;;;;64.90;31.65;;;;;;;6.56;79.43;101664.66;5001933;28;20035;-61
2021/10/04 04:03:22;;;;;;;64.85;32.38;;;;;;;6.61;79.68;101666.50;5003536;28;20027;-61
2021/10/04 04:06:08;;;;;;;63.15;31.20;;;;;;;6.68;79.14;101666.72;5005658;28;20033;-62
2021/10/04 04:08:54;;;;;;;75.85;32.97;;;;;;;6.66;79.46;101660.63;5005220;28;20026;-63
2021/10/04 04:11:40;;;;;;;82.13;34.35;;;;;;;6.68;78.97;101668.41;5005565;28;20022;-63
2021/10/04 04:14:25;;;;;;;81.65;33.13;;;;;;;6.70;79.49;101667.63;5003866;28;20029;-62
2021/10/04 04:17:11;;;;;;;69.72;33.15;;;;;;;6.74;79.26;101669.44;5003163;28;20307;-61
2021/10/04 04:19:58;;;;;;;65.90;32.38;;;;;;;6.66;79.54;101672.66;5004123;28;20097;-61
2021/10/04 04:22:45;;;;;;;67.95;32.22;;;;;;;6.63;79.72;101672.56;5005228;28;20033;-62
2021/10/04 04:25:31;;;;;;;63.88;31.08;;;;;;;6.71;79.46;101679.66;5004726;28;20219;-62
2021/10/04 04:28:17;;;;;;;60.47;30.27;;;;;;;6.70;79.85;101671.91;5005336;28;20139;-62
2021/10/04 04:31:03;;;;;;;58.17;30.48;;;;;;;6.74;79.60;101674.59;5004658;28;20028;-60
2021/10/04 04:33:49;;;;;;;69.97;32.15;;;;;;;6.74;79.53;101674.59;5003515;28;20393;-61
2021/10/04 04:36:35;;;;;;;65.97;32.10;;;;;;;6.80;79.54;101673.00;5000857;28;20037;-60
2021/10/04 04:39:21;;;;;;;71.00;32.33;;;;;;;6.84;79.73;101670.56;4998569;28;20086;-60
2021/10/04 04:42:07;;;;;;;62.78;29.27;;;;;;;6.87;79.67;101682.66;5001631;28;20058;-61
2021/10/04 04:44:53;;;;;;;68.35;31.65;;;;;;;6.67;79.43;101638.31;5003077;28;20033;-60
2021/10/04 04:47:39;;;;;;;56.90;29.23;;;;;;;6.90;79.15;101675.84;5001664;28;20021;-61
2021/10/04 04:50:25;;;;;;;68.90;32.35;;;;;;;6.94;79.04;101687.13;4997789;28;20330;-59
2021/10/04 04:53:11;;;;;;;60.40;32.45;;;;;;;6.97;79.33;101682.06;5002994;28;20030;-62
2021/10/04 04:55:57;;;;;;;69.40;33.30;;;;;;;7.02;79.76;101683.03;4998635;28;20030;-62
2021/10/04 04:58:42;;;;;;;52.30;29.13;;;;;;;7.02;78.36;101672.72;4999311;28;20254;-60
2021/10/04 05:01:28;;;;;;;54.42;29.92;;;;;;;7.07;78.19;101681.44;5004577;28;20033;-62
2021/10/04 05:04:14;;;;;;;63.58;32.78;;;;;;;7.15;78.75;101685.91;5004518;28;20322;-62
2021/10/04 05:07:00;;;;;;;64.22;30.20;;;;;;;7.18;78.06;101697.19;5015158;28;20041;-63
2021/10/04 05:09:46;;;;;;;73.15;31.70;;;;;;;7.25;78.32;101700.78;5000036;28;20041;-63
2021/10/04 05:12:32;;;;;;;69.28;33.70;;;;;;;7.21;77.21;101698.94;5001339;28;20030;-64
2021/10/04 05:15:18;;;;;;;52.13;28.63;;;;;;;7.31;76.91;101690.63;4999935;28;20028;-63
2021/10/04 05:18:04;;;;;;;55.97;28.45;;;;;;;7.40;77.26;101702.88;5001629;28;20057;-62
2021/10/04 05:20:50;;;;;;;55.13;29.70;;;;;;;7.44;76.48;101691.81;5016377;28;20034;-62
2021/10/04 05:23:36;;;;;;;51.38;29.40;;;;;;;7.32;76.03;101699.22;5001941;28;20034;-63
2021/10/04 05:26:22;;;;;;;48.45;29.02;;;;;;;7.45;75.23;101695.25;5018580;28;20029;-62
2021/10/04 05:29:08;;;;;;;47.85;26.30;;;;;;;7.46;76.77;101699.56;5002324;28;20030;-62
2021/10/04 05:31:54;;;;;;;40.58;24.42;;;;;;;7.55;74.66;101702.34;5002036;28;20223;-62
2021/10/04 05:34:40;;;;;;;41.05;21.92;;;;;;;7.57;73.94;101703.28;5018268;28;20034;-62
2021/10/04 05:37:26;;;;;;;40.40;23.17;;;;;;;7.64;74.67;101687.13;5002723;28;20026;-62
2021/10/04 05:40:14;;;;;;;42.97;24.30;;;;;;;7.72;74.89;101702.75;4986842;28;20084;-62
2021/10/04 05:42:59;;;;;;;39.78;24.88;;;;;;;7.74;73.98;101699.38;4986846;28;20046;-62
2021/10/04 05:45:45;;;;;;;41.90;23.90;;;;;;;7.82;73.91;101707.28;4988659;28;20323;-63
2021/10/04 05:48:32;;;;;;;41.05;23.73;;;;;;;7.78;73.38;101710.63;4999909;28;20037;-61
2021/10/04 05:51:19;;;;;;;31.88;22.02;;;;;;;7.78;73.05;101697.72;4989683;28;20029;-63
2021/10/04 05:54:05;;;;;;;36.15;22.15;;;;;;;7.86;73.11;101713.41;4989537;28;20338;-63
2021/10/04 05:56:51;;;;;;;39.13;23.52;;;;;;;7.97;73.54;101711.94;5015795;28;20104;-63
2021/10/04 05:59:37;;;;;;;38.65;22.60;;;;;;;8.00;72.35;101706.81;5004104;28;20349;-63
2021/10/04 06:02:23;;;;;;;41.80;24.77;;;;;;;8.03;72.03;101712.06;5004330;28;20038;-63
2021/10/04 06:05:09;;;;;;;36.33;22.35;;;;;;;8.19;72.06;101709.81;5003320;28;20320;-62
2021/10/04 06:07:55;;;;;;;39.20;22.65;;;;;;;8.25;72.56;101715.97;4995118;28;20027;-62
2021/10/04 06:10:41;;;;;;;42.17;23.98;;;;;;;8.18;72.26;101710.63;5006966;28;20026;-63
2021/10/04 06:13:27;;;;;;;35.50;23.15;;;;;;;8.20;71.10;101717.56;5007274;28;20054;-62
2021/10/04 06:16:13;;;;;;;36.08;23.27;;;;;;;8.33;71.11;101710.09;5007208;28;20097;-63
2021/10/04 06:18:59;;;;;;;47.65;25.08;;;;;;;8.44;71.50;101706.91;5005249;28;20093;-63
2021/10/04 06:21:45;;;;;;;37.47;23.25;;;;;;;8.57;71.77;101717.50;5007564;28;20030;-63
2021/10/04 06:24:30;;;;;;;41.47;22.15;;;;;;;8.74;70.85;101712.69;5007091;28;20349;-63
2021/10/04 06:27:16;;;;;;;38.53;21.17;;;;;;;8.95;71.41;101714.75;5006221;28;20019;-63
2021/10/04 06:30:04;;;;;;;36.17;21.95;;;;;;;8.77;70.25;101656.75;5006706;28;20307;-62
2021/10/04 06:32:50;;;;;;;41.70;22.20;;;;;;;9.25;68.78;101717.03;5007047;28;20031;-63
2021/10/04 06:35:36;;;;;;;35.58;21.58;;;;;;;9.36;68.35;101717.19;5007041;28;20214;-63
2021/10/04 06:38:22;;;;;;;30.20;20.50;;;;;;;9.42;67.59;101714.72;5005784;28;20072;-63
2021/10/04 06:41:08;;;;;;;34.00;20.70;;;;;;;9.53;67.50;101712.31;5006840;28;20153;-62
2021/10/04 06:43:54;;;;;;;36.75;21.23;;;;;;;9.61;67.29;101715.88;5006697;28;20034;-63
2021/10/04 06:46:40;;;;;;;37.10;21.85;;;;;;;9.75;66.86;101704.88;5006620;28;20030;-63
2021/10/04 06:49:25;;;;;;;38.72;20.30;;;;;;;9.93;66.73;101712.03;5005979;28;20141;-62
2021/10/04 06:52:12;;;;;;;31.15;20.55;;;;;;;10.09;66.45;101718.28;4999458;28;20195;-63
2021/10/04 06:54:59;;;;;;;35.40;22.45;;;;;;;9.91;65.97;101719.78;5003677;28;20030;-63
2021/10/04 06:57:45;;;;;;;31.10;19.83;;;;;;;10.06;66.51;101719.13;5007199;28;20045;-63
2021/10/04 07:00:31;;;;;;;31.48;19.05;;;;;;;10.26;65.46;101723.69;5005639;28;20088;-63
2021/10/04 07:03:16;;;;;;;32.92;21.48;;;;;;;10.28;64.22;101715.09;5011928;28;20038;-63
2021/10/04 07:06:03;;;;;;;30.52;20.45;;;;;;;9.97;65.28;101726.75;5012394;28;20030;-62
2021/10/04 07:08:49;;;;;;;24.98;18.50;;;;;;;10.19;65.07;101720.19;5002325;28;20040;-63
2021/10/04 07:11:36;;;;;;;36.47;19.15;;;;;;;10.31;65.22;101725.50;5003942;28;20026;-62
2021/10/04 07:14:22;;;;;;;30.58;18.88;;;;;;;10.39;65.61;101728.22;5004694;28;20026;-62
2021/10/04 07:17:08;;;;;;;33.33;17.38;;;;;;;10.51;65.42;101725.75;5005081;28;20034;-62
2021/10/04 07:19:53;;;;;;;23.88;15.77;;;;;;;10.52;63.86;101730.09;5004531;28;20027;-62
2021/10/04 07:22:41;;;;;;;25.65;16.30;;;;;;;10.58;62.75;101729.31;5020838;28;20327;-63
2021/10/04 07:25:27;;;;;;;26.15;16.60;;;;;;;10.33;62.57;101723.81;5003543;28;20050;-62
2021/10/04 07:28:13;;;;;;;25.70;16.33;;;;;;;10.61;62.51;101733.66;4987143;28;20027;-62
2021/10/04 07:30:59;;;;;;;28.50;17.80;;;;;;;10.60;61.75;101713.78;5006644;28;20038;-62
2021/10/04 07:33:45;;;;;;;25.23;18.17;;;;;;;10.82;61.81;101733.91;5005047;28;20026;-62
2021/10/04 07:36:31;;;;;;;31.52;19.30;;;;;;;10.70;62.55;101736.34;5005795;28;20025;-63
2021/10/04 07:39:18;;;;;;;23.98;17.30;;;;;;;10.58;60.39;101733.63;5002447;28;20025;-64
2021/10/04 07:42:03;;;;;;;28.70;16.52;;;;;;;10.70;61.12;101728.56;5005036;28;20358;-63
2021/10/04 07:44:50;;;;;;;25.17;16.95;;;;;;;10.80;60.92;101730.44;5005245;28;20038;-63
2021/10/04 07:47:37;;;;;;;22.55;15.52;;;;;;;10.59;59.71;101730.16;5004098;28;20220;-63
2021/10/04 07:50:23;;;;;;;22.20;12.60;;;;;;;10.49;58.97;101745.63;5004411;28;20062;-62
2021/10/04 07:53:09;;;;;;;21.05;13.80;;;;;;;10.57;60.61;101737.91;4998334;28;20049;-63
2021/10/04 07:55:56;;;;;;;23.65;14.85;;;;;;;10.71;59.63;101736.34;5004013;28;20084;-62
2021/10/04 07:58:41;;;;;;;22.27;15.80;;;;;;;10.76;59.29;101723.47;5005203;28;20053;-64
2021/10/04 08:01:27;;;;;;;22.70;15.85;;;;;;;10.69;60.00;101726.84;5002647;28;20030;-63
2021/10/04 08:04:13;;;;;;;21.67;14.60;;;;;;;10.65;59.41;101727.66;4999254;28;20101;-62
2021/10/04 08:06:59;;;;;;;23.08;14.57;;;;;;;10.77;58.99;101725.19;4997359;28;20262;-63
2021/10/04 08:09:45;;;;;;;25.20;14.32;;;;;;;10.91;59.18;101720.16;5005136;28;20094;-63
2021/10/04 08:12:31;;;;;;;24.25;15.98;;;;;;;10.86;58.73;101716.66;5004563;28;20029;-62
2021/10/04 08:15:17;;;;;;;23.02;14.68;;;;;;;10.95;59.01;101721.94;5004393;28;20105;-64
2021/10/04 08:18:04;;;;;;;28.67;17.35;;;;;;;11.07;59.05;101722.91;5004010;28;20215;-63
2021/10/04 08:20:50;;;;;;;28.20;17.92;;;;;;;11.18;59.01;101724.75;5004241;28;20034;-62
2021/10/04 08:23:37;;;;;;;33.97;19.13;;;;;;;11.12;59.62;101727.28;5004925;28;20033;-63
2021/10/04 08:26:23;;;;;;;25.23;17.58;;;;;;;11.34;58.87;101728.38;5004422;28;20026;-62
2021/10/04 08:29:09;;;;;;;27.48;17.60;;;;;;;11.29;56.95;101735.22;5011854;28;20319;-63
2021/10/04 08:31:55;;;;;;;26.30;17.70;;;;;;;11.56;58.26;101733.72;5009342;28;20031;-64
2021/10/04 08:34:40;;;;;;;21.40;14.18;;;;;;;11.91;56.66;101735.69;5004669;28;20034;-63
2021/10/04 08:37:32;;;;;;;22.35;16.05;;;;;;;12.06;53.87;101735.81;4999791;28;20120;-62
2021/10/04 08:40:19;;;;;;;19.83;13.53;;;;;;;12.52;52.66;101729.09;5000253;28;20315;-63
2021/10/04 08:43:05;;;;;;;20.35;13.75;;;;;;;13.01;53.05;101729.22;5004654;28;20049;-64
2021/10/04 08:45:54;;;;;;;20.98;14.43;;;;;;;13.39;52.42;101732.75;5002683;28;20049;-63
2021/10/04 08:48:40;;;;;;;23.85;13.75;;;;;;;13.78;50.79;101733.59;4988866;28;20399;-64
2021/10/04 08:51:26;;;;;;;22.65;14.88;;;;;;;14.29;51.50;101736.06;5001757;28;20022;-63
2021/10/04 08:54:12;;;;;;;21.98;13.43;;;;;;;14.48;48.85;101731.66;5019952;28;20065;-63
2021/10/04 08:56:59;;;;;;;22.33;14.43;;;;;;;14.69;48.90;101732.44;5003814;28;20231;-63
2021/10/04 08:59:45;;;;;;;20.35;13.73;;;;;;;14.28;48.19;101734.31;4990179;28;20395;-63
2021/10/04 09:02:31;;;;;;;15.65;11.30;;;;;;;13.93;47.63;101733.56;5010636;28;20338;-62
2021/10/04 09:05:18;;;;;;;18.20;12.20;;;;;;;14.31;46.56;101734.34;5017606;28;20041;-63
2021/10/04 09:08:07;;;;;;;19.85;12.50;;;;;;;12.92;49.49;101732.66;4999970;28;20056;-64
2021/10/04 09:10:55;;;;;;;16.52;11.40;;;;;;;14.27;48.41;101732.63;5002116;28;20367;-62
2021/10/04 09:13:47;;;;;;;18.17;12.40;;;;;;;14.60;47.43;101728.97;4993456;28;20912;-63
2021/10/04 09:17:10;;;;;;;17.63;11.45;;;;;;;13.90;48.18;101743.13;4999854;28;20162;-63
2021/10/04 09:19:56;;;;;;;18.67;12.55;;;;;;;13.38;48.50;101738.81;4998051;28;20037;-61
2021/10/04 09:22:42;;;;;;;16.77;11.75;;;;;;;12.46;50.98;101740.34;4998777;28;20046;-64
2021/10/04 09:25:27;;;;;;;18.55;11.73;;;;;;;13.01;52.45;101736.16;5002699;28;20092;-62
2021/10/04 09:28:14;;;;;;;16.90;12.52;;;;;;;12.70;50.91;101741.28;4997009;28;20361;-62
2021/10/04 09:31:24;;;;;;;17.25;11.50;;;;;;;12.65;52.05;101743.00;5001081;28;20102;-63
2021/10/04 09:34:20;;;;;;;16.77;11.98;;;;;;;12.90;51.73;101739.59;4997129;28;20041;-63
2021/10/04 09:37:06;;;;;;;14.82;11.20;;;;;;;12.44;51.32;101739.44;4985738;28;20033;-63
2021/10/04 09:39:52;;;;;;;17.63;13.00;;;;;;;12.19;51.97;101743.69;5003529;28;20041;-63
2021/10/04 09:42:39;;;;;;;21.05;12.43;;;;;;;12.23;52.45;101737.63;5002111;28;20108;-62
2021/10/04 09:45:26;;;;;;;19.27;12.85;;;;;;;12.37;52.98;101737.69;5005071;28;20338;-63
2021/10/04 09:48:13;;;;;;;15.85;11.05;;;;;;;11.95;51.09;101689.88;5003707;28;20042;-63
2021/10/04 09:51:14;;;;;;;16.48;11.07;;;;;;;12.17;52.18;101738.47;5003407;28;20105;-63
2021/10/04 09:54:10;;;;;;;14.23;11.80;;;;;;;12.06;52.52;101741.00;5008572;28;20226;-63
2021/10/04 09:56:56;;;;;;;23.88;11.40;;;;;;;12.03;52.77;101740.13;5006369;28;20273;-62
2021/10/04 09:59:42;;;;;;;18.90;11.13;;;;;;;11.70;53.26;101737.28;5005131;28;20022;-63
2021/10/04 10:02:30;;;;;;;16.10;10.95;;;;;;;11.79;52.91;101733.88;5004777;28;20219;-63
2021/10/04 10:05:16;;;;;;;14.18;11.05;;;;;;;11.92;53.09;101733.09;5001275;28;20335;-63
2021/10/04 10:08:03;;;;;;;19.98;11.90;;;;;;;11.97;52.05;101724.50;5004578;28;20033;-63
2021/10/04 10:10:51;;;;;;;13.77;10.20;;;;;;;11.86;52.58;101695.84;5003731;28;20034;-62
2021/10/04 10:13:37;;;;;;;14.68;10.82;;;;;;;11.46;53.11;101737.06;5002826;28;20041;-63
2021/10/04 10:16:31;;;;;;;16.13;10.43;;;;;;;11.53;53.07;101736.28;5003349;28;20033;-63
2021/10/04 10:19:18;;;;;;;13.63;10.18;;;;;;;11.52;52.88;101735.41;4997633;28;20062;-63
2021/10/04 10:22:15;;;;;;;14.73;10.05;;;;;;;11.55;52.95;101730.25;5006077;28;20018;-63
2021/10/04 10:25:02;;;;;;;18.17;10.93;;;;;;;11.57;53.64;101728.53;5007008;28;20034;-63
2021/10/04 10:27:48;;;;;;;14.40;9.98;;;;;;;11.71;52.81;101732.94;5006743;28;20034;-63
2021/10/04 10:30:34;;;;;;;12.95;9.85;;;;;;;11.33;52.53;101726.63;5001321;28;20047;-63
2021/10/04 10:33:45;;;;;;;18.05;9.95;;;;;;;11.81;52.05;101736.47;5001884;28;20222;-61
2021/10/04 10:37:00;;;;;;;15.48;8.88;;;;;;;11.65;50.82;101727.72;5003773;28;20377;-64
2021/10/04 10:39:53;;;;;;;11.13;8.75;;;;;;;11.95;51.54;101726.22;5005365;28;20029;-63
2021/10/04 10:42:42;;;;;;;13.65;9.98;;;;;;;11.94;51.11;101734.88;5004988;28;20042;-64
2021/10/04 10:45:43;;;;;;;16.08;9.48;;;;;;;12.09;50.09;101721.97;5005696;28;20339;-62
2021/10/04 10:48:41;;;;;;;13.68;9.88;;;;;;;12.12;51.44;101718.53;5004998;28;20023;-62
2021/10/04 10:51:27;;;;;;;13.75;9.52;;;;;;;12.06;50.75;101711.56;5003742;28;20030;-61
2021/10/04 10:54:38;;;;;;;14.50;9.90;;;;;;;12.33;49.43;101722.97;5000287;28;20193;-62
2021/10/04 10:58:04;;;;;;;13.43;9.57;;;;;;;12.46;50.33;101722.13;5001345;28;20160;-63
2021/10/04 11:00:50;;;;;;;17.55;10.70;;;;;;;12.22;50.02;101715.97;5004035;28;20041;-63
2021/10/04 11:03:45;;;;;;;15.73;9.95;;;;;;;12.07;49.90;101679.53;5003815;28;20200;-63
2021/10/04 11:06:39;;;;;;;15.23;10.07;;;;;;;12.07;50.34;101680.41;4987054;28;20027;-64
2021/10/04 11:09:25;;;;;;;14.25;9.85;;;;;;;12.39;50.40;101713.44;5004571;28;20485;-63
2021/10/04 11:12:11;;;;;;;14.60;10.43;;;;;;;12.53;52.18;101716.09;5002514;28;20038;-63
2021/10/04 11:14:57;;;;;;;17.63;11.40;;;;;;;12.00;50.52;101714.13;5010757;28;20029;-63
2021/10/04 11:18:01;;;;;;;16.20;10.10;;;;;;;12.03;50.90;101712.41;5018118;28;20038;-63
2021/10/04 11:20:49;;;;;;;14.73;10.05;;;;;;;12.07;50.04;101716.78;4992719;28;20327;-63
2021/10/04 11:23:49;;;;;;;13.82;9.88;;;;;;;12.14;50.07;101717.69;5003243;28;20224;-63
2021/10/04 11:26:37;;;;;;;14.13;10.23;;;;;;;12.24;50.33;101722.06;5005287;28;20022;-63
2021/10/04 11:29:24;;;;;;;17.05;11.38;;;;;;;12.29;50.28;101710.81;5005067;28;20065;-63
2021/10/04 11:32:15;;;;;;;13.95;10.35;;;;;;;12.09;50.17;101663.09;5004160;28;20073;-63
2021/10/04 11:35:13;;;;;;;13.93;10.77;;;;;;;12.01;49.07;101669.13;5003451;28;20026;-63
2021/10/04 11:38:08;;;;;;;13.40;10.43;;;;;;;12.41;50.43;101710.84;5005806;28;20041;-63
2021/10/04 11:40:55;;;;;;;13.82;10.05;;;;;;;12.45;49.33;101712.59;5006211;28;20025;-63
2021/10/04 11:43:42;;;;;;;12.40;9.80;;;;;;;12.54;49.65;101728.25;5005690;28;20319;-63
2021/10/04 11:46:37;;;;;;;18.48;11.15;;;;;;;12.12;48.94;101659.66;5005213;28;20054;-63
2021/10/04 11:49:25;;;;;;;16.08;10.35;;;;;;;12.58;50.29;101719.59;5018392;28;20034;-64
2021/10/04 11:52:18;;;;;;;17.02;10.35;;;;;;;12.34;50.11;101663.22;4994877;28;20475;-63
2021/10/04 11:55:09;;;;;;;16.33;10.68;;;;;;;12.36;50.75;101690.06;5004927;28;20230;-63
2021/10/04 11:57:55;;;;;;;18.52;11.30;;;;;;;12.50;49.46;101726.50;5006066;28;20031;-63
2021/10/04 12:00:48;;;;;;;15.02;11.45;;;;;;;12.43;51.08;101717.78;5001678;28;20026;-64
2021/10/04 12:03:34;;;;;;;14.35;11.38;;;;;;;12.36;49.77;101720.38;5003697;28;20030;-62
2021/10/04 12:06:20;;;;;;;16.90;10.52;;;;;;;12.46;51.21;101703.94;5005380;28;20042;-63
2021/10/04 12:09:11;;;;;;;19.50;12.80;;;;;;;12.29;50.34;101721.22;5004769;28;20311;-63
2021/10/04 12:11:58;;;;;;;23.73;13.63;;;;;;;12.09;52.11;101720.22;4989789;28;20238;-63
2021/10/04 12:14:44;;;;;;;17.65;11.40;;;;;;;12.19;52.16;101721.16;5003936;28;20027;-63
2021/10/04 12:17:37;;;;;;;14.43;11.60;;;;;;;12.00;50.83;101675.16;5005738;28;20029;-64
2021/10/04 12:20:24;;;;;;;15.15;11.63;;;;;;;12.05;51.84;101717.63;5004214;28;20093;-63
2021/10/04 12:23:21;;;;;;;14.60;11.48;;;;;;;12.12;52.10;101713.34;5004757;28;20033;-64
2021/10/04 12:26:12;;;;;;;13.98;10.45;;;;;;;11.94;51.29;101670.81;5004942;28;20377;-63
2021/10/04 12:28:58;;;;;;;15.43;11.02;;;;;;;12.20;50.79;101722.91;5008767;28;20029;-64
2021/10/04 12:31:43;;;;;;;15.35;10.68;;;;;;;12.18;51.28;101719.41;5013220;28;20857;-63
2021/10/04 12:34:29;;;;;;;17.80;11.75;;;;;;;12.17;51.58;101702.09;5003326;28;20032;-63
2021/10/04 12:37:23;;;;;;;15.23;9.38;;;;;;;11.84;51.50;101739.97;5004667;28;20033;-63
2021/10/04 12:40:29;;;;;;;12.77;10.07;;;;;;;11.72;51.71;101726.91;5002669;28;20030;-62
2021/10/04 12:43:24;;;;;;;15.52;10.10;;;;;;;11.95;51.88;101705.44;5004455;28;20259;-63
2021/10/04 12:46:14;;;;;;;13.10;10.40;;;;;;;12.19;52.65;101721.16;5003484;28;20093;-62
2021/10/04 12:49:17;;;;;;;17.45;10.38;;;;;;;12.05;52.27;101721.06;5019079;28;20030;-63